createdAt,value
2017-09-14T00:00:22.355Z,0
2017-09-14T00:01:02.926Z,0
2017-09-14T00:01:43.496Z,0
2017-09-14T00:02:24.059Z,0
2017-09-14T00:03:04.617Z,0
2017-09-14T00:03:45.180Z,0
2017-09-14T00:04:25.749Z,0
2017-09-14T00:05:06.319Z,0
2017-09-14T00:05:46.873Z,0
2017-09-14T00:06:27.447Z,0
2017-09-14T00:07:08.001Z,0
2017-09-14T00:07:48.558Z,0
2017-09-14T00:08:29.102Z,0
2017-09-14T00:09:09.654Z,0
2017-09-14T00:09:50.226Z,0
2017-09-14T00:10:30.792Z,0
2017-09-14T00:11:11.368Z,0
2017-09-14T00:11:51.925Z,0
2017-09-14T00:12:32.488Z,0
2017-09-14T00:13:13.055Z,0
2017-09-14T00:13:53.624Z,0
2017-09-14T00:14:34.166Z,0
2017-09-14T00:15:14.743Z,0
2017-09-14T00:15:55.295Z,0
2017-09-14T00:16:35.874Z,0
2017-09-14T00:17:16.433Z,0
2017-09-14T00:17:57.007Z,0
2017-09-14T00:18:37.548Z,0
2017-09-14T00:19:18.124Z,0
2017-09-14T00:19:58.666Z,0
2017-09-14T00:20:39.222Z,0
2017-09-14T00:21:19.768Z,0
2017-09-14T00:22:00.376Z,0
2017-09-14T00:22:40.922Z,0
2017-09-14T00:23:21.494Z,0
2017-09-14T00:24:02.042Z,0
2017-09-14T00:24:42.594Z,0
2017-09-14T00:25:23.175Z,0
2017-09-14T00:26:03.734Z,0
2017-09-14T00:26:44.298Z,0
2017-09-14T00:27:24.852Z,0
2017-09-14T00:28:05.415Z,0
2017-09-14T00:28:45.980Z,0
2017-09-14T00:29:26.549Z,0
2017-09-14T00:30:07.110Z,0
2017-09-14T00:30:47.679Z,0
2017-09-14T00:31:28.242Z,0
2017-09-14T00:32:08.802Z,0
2017-09-14T00:32:49.354Z,0
2017-09-14T00:33:29.916Z,0
2017-09-14T00:34:10.462Z,0
2017-09-14T00:34:51.019Z,0
2017-09-14T00:35:31.600Z,0
2017-09-14T00:36:12.147Z,0
2017-09-14T00:36:52.720Z,0
2017-09-14T00:37:33.288Z,0
2017-09-14T00:38:13.864Z,0
2017-09-14T00:38:54.417Z,0
2017-09-14T00:39:34.978Z,0
2017-09-14T00:40:15.549Z,0
2017-09-14T00:40:56.102Z,0
2017-09-14T00:41:36.664Z,0
2017-09-14T00:42:17.226Z,0
2017-09-14T00:42:57.786Z,0
2017-09-14T00:43:38.349Z,0
2017-09-14T00:44:18.916Z,0
2017-09-14T00:44:59.489Z,0
2017-09-14T00:45:40.060Z,0
2017-09-14T00:46:20.616Z,0
2017-09-14T00:47:01.176Z,0
2017-09-14T00:47:41.733Z,0
2017-09-14T00:48:22.267Z,0
2017-09-14T00:49:02.810Z,0
2017-09-14T00:49:43.372Z,0
2017-09-14T00:50:23.943Z,0
2017-09-14T00:51:04.517Z,0
2017-09-14T00:51:45.095Z,0
2017-09-14T00:52:25.652Z,0
2017-09-14T00:53:06.206Z,0
2017-09-14T00:53:46.759Z,0
2017-09-14T00:54:27.321Z,0
2017-09-14T00:55:07.876Z,0
2017-09-14T00:55:48.449Z,0
2017-09-14T00:56:29.038Z,0
2017-09-14T00:57:09.601Z,0
2017-09-14T00:57:50.161Z,0
2017-09-14T00:58:30.729Z,0
2017-09-14T00:59:11.292Z,0
2017-09-14T00:59:51.849Z,0
2017-09-14T01:00:32.409Z,0
2017-09-14T01:01:12.993Z,0
2017-09-14T01:01:53.549Z,0
2017-09-14T01:02:34.125Z,0
2017-09-14T01:03:14.690Z,0
2017-09-14T01:03:55.247Z,0
2017-09-14T01:04:35.808Z,0
2017-09-14T01:05:16.363Z,0
2017-09-14T01:05:56.936Z,0
2017-09-14T01:06:37.513Z,0
2017-09-14T01:07:18.070Z,0
2017-09-14T01:07:58.628Z,0
2017-09-14T01:08:39.187Z,0
2017-09-14T01:09:19.748Z,0
2017-09-14T01:10:00.286Z,0
2017-09-14T01:10:40.854Z,0
2017-09-14T01:11:21.406Z,0
2017-09-14T01:12:01.980Z,0
2017-09-14T01:12:42.553Z,0
2017-09-14T01:13:23.106Z,0
2017-09-14T01:14:03.664Z,0
2017-09-14T01:14:44.217Z,0
2017-09-14T01:15:24.792Z,0
2017-09-14T01:16:05.373Z,0
2017-09-14T01:16:45.920Z,0
2017-09-14T01:17:26.480Z,0
2017-09-14T01:18:07.040Z,0
2017-09-14T01:18:47.619Z,0
2017-09-14T01:19:28.175Z,0
2017-09-14T01:20:08.753Z,0
2017-09-14T01:20:49.312Z,0
2017-09-14T01:21:29.883Z,0
2017-09-14T01:22:10.432Z,0
2017-09-14T01:22:50.982Z,0
2017-09-14T01:23:31.559Z,0
2017-09-14T01:24:12.135Z,0
2017-09-14T01:24:52.695Z,0
2017-09-14T01:25:33.256Z,0
2017-09-14T01:26:13.819Z,0
2017-09-14T01:26:54.390Z,0
2017-09-14T01:27:34.960Z,0
2017-09-14T01:28:15.544Z,0
2017-09-14T01:28:56.114Z,0
2017-09-14T01:29:36.696Z,0
2017-09-14T01:30:17.264Z,0
2017-09-14T01:30:57.846Z,0
2017-09-14T01:31:38.461Z,0
2017-09-14T01:32:18.999Z,0
2017-09-14T01:32:59.593Z,0
2017-09-14T01:33:40.143Z,0
2017-09-14T01:34:20.710Z,0
2017-09-14T01:35:01.285Z,0
2017-09-14T01:35:41.855Z,0
2017-09-14T01:36:22.412Z,0
2017-09-14T01:37:02.964Z,0
2017-09-14T01:37:43.527Z,0
2017-09-14T01:38:24.103Z,0
2017-09-14T01:39:04.664Z,0
2017-09-14T01:39:45.228Z,0
2017-09-14T01:40:25.798Z,0
2017-09-14T01:41:06.379Z,0
2017-09-14T01:41:46.925Z,0
2017-09-14T01:42:27.512Z,0
2017-09-14T01:43:08.077Z,0
2017-09-14T01:43:48.646Z,0
2017-09-14T01:44:29.206Z,0
2017-09-14T01:45:09.791Z,0
2017-09-14T01:45:50.339Z,0
2017-09-14T01:46:30.898Z,0
2017-09-14T01:47:11.462Z,0
2017-09-14T01:47:52.025Z,0
2017-09-14T01:48:32.589Z,0
2017-09-14T01:49:13.152Z,0
2017-09-14T01:49:53.719Z,0
2017-09-14T01:50:34.277Z,0
2017-09-14T01:51:14.833Z,0
2017-09-14T01:51:55.402Z,0
2017-09-14T01:52:35.962Z,0
2017-09-14T01:53:16.530Z,0
2017-09-14T01:53:57.100Z,0
2017-09-14T01:54:37.673Z,0
2017-09-14T01:55:18.242Z,0
2017-09-14T01:55:58.804Z,0
2017-09-14T01:56:39.375Z,0
2017-09-14T01:57:19.944Z,0
2017-09-14T01:58:00.514Z,0
2017-09-14T01:58:41.082Z,0
2017-09-14T01:59:21.654Z,0
2017-09-14T02:00:02.222Z,0
2017-09-14T02:00:42.795Z,0
2017-09-14T02:01:23.365Z,0
2017-09-14T02:02:03.914Z,0
2017-09-14T02:02:44.479Z,0
2017-09-14T02:03:25.038Z,0
2017-09-14T02:04:05.625Z,0
2017-09-14T02:04:46.185Z,0
2017-09-14T02:05:26.759Z,0
2017-09-14T02:06:07.325Z,0
2017-09-14T02:06:47.884Z,0
2017-09-14T02:07:28.438Z,0
2017-09-14T02:08:09.018Z,0
2017-09-14T02:08:49.556Z,0
2017-09-14T02:09:30.131Z,0
2017-09-14T02:10:10.701Z,0
2017-09-14T02:10:51.255Z,0
2017-09-14T02:11:31.803Z,0
2017-09-14T02:12:12.378Z,0
2017-09-14T02:12:52.941Z,0
2017-09-14T02:13:33.527Z,0
2017-09-14T02:14:14.073Z,0
2017-09-14T02:14:54.630Z,0
2017-09-14T02:15:35.191Z,0
2017-09-14T02:16:15.764Z,0
2017-09-14T02:16:56.319Z,0
2017-09-14T02:17:36.873Z,0
2017-09-14T02:18:17.426Z,0
2017-09-14T02:18:57.993Z,0
2017-09-14T02:19:38.562Z,0
2017-09-14T02:20:19.139Z,0
2017-09-14T02:20:59.696Z,0
2017-09-14T02:21:40.256Z,0
2017-09-14T02:22:20.828Z,0
2017-09-14T02:23:01.369Z,0
2017-09-14T02:23:41.925Z,0
2017-09-14T02:24:22.481Z,0
2017-09-14T02:25:03.019Z,0
2017-09-14T02:25:43.609Z,0
2017-09-14T02:26:24.161Z,0
2017-09-14T02:27:04.692Z,0
2017-09-14T02:27:45.247Z,0
2017-09-14T02:28:25.816Z,0
2017-09-14T02:29:06.371Z,0
2017-09-14T02:29:46.935Z,0
2017-09-14T02:30:27.493Z,0
2017-09-14T02:31:08.060Z,0
2017-09-14T02:31:48.629Z,0
2017-09-14T02:32:29.185Z,0
2017-09-14T02:33:09.770Z,0
2017-09-14T02:33:50.353Z,0
2017-09-14T02:34:30.913Z,0
2017-09-14T02:35:11.489Z,0
2017-09-14T02:35:52.055Z,0
2017-09-14T02:36:32.581Z,0
2017-09-14T02:37:13.122Z,0
2017-09-14T02:37:53.671Z,0
2017-09-14T02:38:34.226Z,0
2017-09-14T02:39:14.783Z,0
2017-09-14T02:39:55.342Z,0
2017-09-14T02:40:35.889Z,0
2017-09-14T02:41:16.461Z,0
2017-09-14T02:41:57.011Z,0
2017-09-14T02:42:37.560Z,0
2017-09-14T02:43:18.121Z,0
2017-09-14T02:43:58.661Z,0
2017-09-14T02:44:39.184Z,0
2017-09-14T02:45:19.758Z,0
2017-09-14T02:46:00.355Z,0
2017-09-14T02:46:40.917Z,0
2017-09-14T02:47:21.489Z,0
2017-09-14T02:48:02.131Z,0
2017-09-14T02:48:42.691Z,0
2017-09-14T02:49:23.257Z,0
2017-09-14T02:50:03.824Z,0
2017-09-14T02:50:44.408Z,0
2017-09-14T02:51:24.974Z,0
2017-09-14T02:52:05.537Z,0
2017-09-14T02:52:46.098Z,0
2017-09-14T02:53:26.662Z,0
2017-09-14T02:54:07.215Z,0
2017-09-14T02:54:47.776Z,0
2017-09-14T02:55:28.329Z,0
2017-09-14T02:56:08.867Z,0
2017-09-14T02:56:49.441Z,0
2017-09-14T02:57:30.006Z,0
2017-09-14T02:58:10.579Z,0
2017-09-14T02:58:51.132Z,0
2017-09-14T02:59:31.694Z,0
2017-09-14T03:00:12.260Z,0
2017-09-14T03:00:52.810Z,0
2017-09-14T03:01:33.359Z,0
2017-09-14T03:02:13.930Z,0
2017-09-14T03:02:54.489Z,0
2017-09-14T03:03:35.058Z,0
2017-09-14T03:04:15.613Z,0
2017-09-14T03:04:56.182Z,0
2017-09-14T03:05:36.732Z,0
2017-09-14T03:06:17.291Z,0
2017-09-14T03:06:57.854Z,0
2017-09-14T03:07:38.421Z,0
2017-09-14T03:08:18.992Z,0
2017-09-14T03:08:59.523Z,0
2017-09-14T03:09:40.100Z,0
2017-09-14T03:10:20.661Z,0
2017-09-14T03:11:01.233Z,0
2017-09-14T03:11:41.844Z,0
2017-09-14T03:12:22.407Z,0
2017-09-14T03:13:02.998Z,0
2017-09-14T03:13:43.548Z,0
2017-09-14T03:14:24.118Z,0
2017-09-14T03:15:04.664Z,0
2017-09-14T03:15:45.236Z,0
2017-09-14T03:16:25.792Z,0
2017-09-14T03:17:06.358Z,0
2017-09-14T03:17:46.914Z,0
2017-09-14T03:18:27.489Z,0
2017-09-14T03:19:08.084Z,0
2017-09-14T03:19:48.631Z,0
2017-09-14T03:20:29.200Z,0
2017-09-14T03:21:09.762Z,0
2017-09-14T03:21:50.327Z,0
2017-09-14T03:22:30.879Z,0
2017-09-14T03:23:11.452Z,0
2017-09-14T03:23:52.016Z,0
2017-09-14T03:24:32.574Z,0
2017-09-14T03:25:13.138Z,0
2017-09-14T03:25:53.699Z,0
2017-09-14T03:26:34.275Z,0
2017-09-14T03:27:14.843Z,0
2017-09-14T03:27:55.411Z,0
2017-09-14T03:28:35.979Z,0
2017-09-14T03:29:16.545Z,0
2017-09-14T03:29:57.107Z,0
2017-09-14T03:30:37.688Z,0
2017-09-14T03:31:18.259Z,0
2017-09-14T03:31:58.815Z,0
2017-09-14T03:32:39.382Z,0
2017-09-14T03:33:19.937Z,0
2017-09-14T03:34:00.495Z,0
2017-09-14T03:34:41.065Z,0
2017-09-14T03:35:21.626Z,0
2017-09-14T03:36:02.193Z,0
2017-09-14T03:36:42.750Z,0
2017-09-14T03:37:23.318Z,0
2017-09-14T03:38:03.872Z,0
2017-09-14T03:38:44.437Z,0
2017-09-14T03:39:24.988Z,0
2017-09-14T03:40:05.557Z,0
2017-09-14T03:40:46.099Z,0
2017-09-14T03:41:26.647Z,0
2017-09-14T03:42:07.221Z,0
2017-09-14T03:42:47.768Z,0
2017-09-14T03:43:28.329Z,0
2017-09-14T03:44:08.886Z,0
2017-09-14T03:44:49.432Z,0
2017-09-14T03:45:29.986Z,0
2017-09-14T03:46:10.545Z,0
2017-09-14T03:46:51.118Z,0
2017-09-14T03:47:31.669Z,0
2017-09-14T03:48:12.240Z,0
2017-09-14T03:48:52.815Z,0
2017-09-14T03:49:33.515Z,0
2017-09-14T03:50:14.074Z,0
2017-09-14T03:50:54.636Z,0
2017-09-14T03:51:35.186Z,0
2017-09-14T03:52:15.726Z,0
2017-09-14T03:52:56.292Z,0
2017-09-14T03:53:36.889Z,0
2017-09-14T03:54:17.449Z,0
2017-09-14T03:54:58.021Z,0
2017-09-14T03:55:38.599Z,0
2017-09-14T03:56:19.176Z,0
2017-09-14T03:56:59.771Z,0
2017-09-14T03:57:40.314Z,0
2017-09-14T03:58:20.884Z,0
2017-09-14T03:59:01.463Z,0
2017-09-14T03:59:42.019Z,0
2017-09-14T04:00:22.587Z,0
2017-09-14T04:01:03.132Z,0
2017-09-14T04:01:43.689Z,0
2017-09-14T04:02:24.247Z,0
2017-09-14T04:03:04.812Z,0
2017-09-14T04:03:45.377Z,0
2017-09-14T04:04:25.954Z,0
2017-09-14T04:05:06.539Z,0
2017-09-14T04:05:47.114Z,0
2017-09-14T04:06:27.671Z,0
2017-09-14T04:07:08.239Z,0
2017-09-14T04:07:48.797Z,0
2017-09-14T04:08:29.392Z,0
2017-09-14T04:09:09.938Z,0
2017-09-14T04:09:50.490Z,0
2017-09-14T04:10:31.048Z,0
2017-09-14T04:11:11.582Z,0
2017-09-14T04:11:52.151Z,0
2017-09-14T04:12:32.735Z,0
2017-09-14T04:13:13.257Z,0
2017-09-14T04:13:53.807Z,0
2017-09-14T04:14:34.370Z,0
2017-09-14T04:15:14.935Z,0
2017-09-14T04:15:55.503Z,0
2017-09-14T04:16:36.076Z,0
2017-09-14T04:17:16.661Z,0
2017-09-14T04:17:57.220Z,0
2017-09-14T04:18:37.796Z,0
2017-09-14T04:19:18.363Z,0
2017-09-14T04:19:58.900Z,0
2017-09-14T04:20:39.516Z,0
2017-09-14T04:21:20.069Z,0
2017-09-14T04:22:00.646Z,0
2017-09-14T04:22:41.216Z,0
2017-09-14T04:23:21.775Z,0
2017-09-14T04:24:02.327Z,0
2017-09-14T04:24:42.873Z,0
2017-09-14T04:25:23.414Z,0
2017-09-14T04:26:03.972Z,0
2017-09-14T04:26:44.529Z,0
2017-09-14T04:27:25.131Z,0
2017-09-14T04:28:05.706Z,0
2017-09-14T04:28:46.274Z,0
2017-09-14T04:29:26.851Z,0
2017-09-14T04:30:07.399Z,0
2017-09-14T04:30:47.966Z,0
2017-09-14T04:31:28.517Z,0
2017-09-14T04:32:09.100Z,0
2017-09-14T04:32:49.652Z,0
2017-09-14T04:33:30.212Z,0
2017-09-14T04:34:10.794Z,0
2017-09-14T04:34:51.343Z,0
2017-09-14T04:35:31.890Z,0
2017-09-14T04:36:12.437Z,0
2017-09-14T04:36:52.996Z,0
2017-09-14T04:37:33.563Z,0
2017-09-14T04:38:14.129Z,0
2017-09-14T04:38:54.661Z,0
2017-09-14T04:39:35.199Z,0
2017-09-14T04:40:15.759Z,0
2017-09-14T04:40:56.335Z,0
2017-09-14T04:41:36.896Z,0
2017-09-14T04:42:17.478Z,0
2017-09-14T04:42:58.029Z,0
2017-09-14T04:43:38.595Z,0
2017-09-14T04:44:19.167Z,0
2017-09-14T04:44:59.755Z,0
2017-09-14T04:45:40.323Z,4
2017-09-14T04:46:20.913Z,4
2017-09-14T04:47:01.502Z,4
2017-09-14T04:47:42.079Z,4
2017-09-14T04:48:22.662Z,0
2017-09-14T04:49:03.213Z,0
2017-09-14T04:49:43.770Z,4
2017-09-14T04:50:24.328Z,4
2017-09-14T04:51:04.867Z,4
2017-09-14T04:51:45.422Z,4
2017-09-14T04:52:25.979Z,4
2017-09-14T04:53:06.547Z,8
2017-09-14T04:53:47.118Z,8
2017-09-14T04:54:27.661Z,8
2017-09-14T04:55:08.217Z,8
2017-09-14T04:55:48.794Z,12
2017-09-14T04:56:29.383Z,12
2017-09-14T04:57:09.954Z,12
2017-09-14T04:57:50.526Z,16
2017-09-14T04:58:31.081Z,16
2017-09-14T04:59:11.668Z,20
2017-09-14T04:59:52.234Z,20
2017-09-14T05:00:32.801Z,20
2017-09-14T05:01:13.337Z,24
2017-09-14T05:01:53.881Z,24
2017-09-14T05:02:34.445Z,28
2017-09-14T05:03:15.005Z,28
2017-09-14T05:03:55.575Z,28
2017-09-14T05:04:36.136Z,36
2017-09-14T05:05:16.706Z,36
2017-09-14T05:05:57.296Z,44
2017-09-14T05:06:37.848Z,52
2017-09-14T05:07:18.425Z,56
2017-09-14T05:07:59.006Z,64
2017-09-14T05:08:39.628Z,64
2017-09-14T05:09:20.186Z,64
2017-09-14T05:10:00.734Z,64
2017-09-14T05:10:41.347Z,72
2017-09-14T05:11:21.909Z,80
2017-09-14T05:12:03.102Z,80
2017-09-14T05:12:43.734Z,84
2017-09-14T05:13:24.297Z,88
2017-09-14T05:14:04.832Z,88
2017-09-14T05:14:45.396Z,88
2017-09-14T05:15:25.945Z,80
2017-09-14T05:16:06.512Z,72
2017-09-14T05:16:47.059Z,72
2017-09-14T05:17:27.646Z,68
2017-09-14T05:18:08.199Z,72
2017-09-14T05:18:48.790Z,72
2017-09-14T05:19:29.325Z,76
2017-09-14T05:20:09.863Z,84
2017-09-14T05:20:50.418Z,88
2017-09-14T05:21:31.010Z,100
2017-09-14T05:22:11.531Z,112
2017-09-14T05:22:52.108Z,128
2017-09-14T05:23:32.665Z,160
2017-09-14T05:24:13.439Z,192
2017-09-14T05:24:54.008Z,220
2017-09-14T05:25:34.622Z,236
2017-09-14T05:26:15.291Z,244
2017-09-14T05:26:55.864Z,244
2017-09-14T05:27:36.427Z,236
2017-09-14T05:28:16.996Z,220
2017-09-14T05:28:57.514Z,212
2017-09-14T05:29:38.074Z,216
2017-09-14T05:30:18.645Z,224
2017-09-14T05:30:59.161Z,228
2017-09-14T05:31:39.723Z,236
2017-09-14T05:32:20.308Z,240
2017-09-14T05:33:00.854Z,240
2017-09-14T05:33:41.405Z,224
2017-09-14T05:34:21.943Z,204
2017-09-14T05:35:02.494Z,180
2017-09-14T05:35:43.039Z,160
2017-09-14T05:36:23.674Z,140
2017-09-14T05:37:04.222Z,132
2017-09-14T05:37:44.771Z,136
2017-09-14T05:38:25.350Z,140
2017-09-14T05:39:05.906Z,156
2017-09-14T05:39:46.477Z,168
2017-09-14T05:40:27.007Z,176
2017-09-14T05:41:07.564Z,180
2017-09-14T05:41:48.096Z,188
2017-09-14T05:42:28.627Z,188
2017-09-14T05:43:09.182Z,196
2017-09-14T05:43:49.727Z,200
2017-09-14T05:44:30.277Z,196
2017-09-14T05:45:10.830Z,192
2017-09-14T05:45:51.978Z,180
2017-09-14T05:46:32.566Z,168
2017-09-14T05:47:13.122Z,164
2017-09-14T05:47:53.654Z,164
2017-09-14T05:48:34.224Z,172
2017-09-14T05:49:14.776Z,180
2017-09-14T05:49:55.291Z,188
2017-09-14T05:50:35.802Z,192
2017-09-14T05:51:16.365Z,184
2017-09-14T05:51:56.893Z,176
2017-09-14T05:52:37.416Z,164
2017-09-14T05:53:17.975Z,168
2017-09-14T05:53:58.514Z,168
2017-09-14T05:54:39.046Z,156
2017-09-14T05:55:19.562Z,144
2017-09-14T05:56:00.092Z,132
2017-09-14T05:56:40.661Z,128
2017-09-14T05:57:21.187Z,120
2017-09-14T05:58:01.712Z,136
2017-09-14T05:58:42.282Z,164
2017-09-14T05:59:22.803Z,176
2017-09-14T06:00:03.334Z,160
2017-09-14T06:00:43.907Z,188
2017-09-14T06:01:24.468Z,224
2017-09-14T06:02:05.699Z,248
2017-09-14T06:02:46.464Z,260
2017-09-14T06:03:26.981Z,280
2017-09-14T06:04:07.652Z,304
2017-09-14T06:04:48.182Z,312
2017-09-14T06:05:28.743Z,312
2017-09-14T06:06:09.279Z,308
2017-09-14T06:06:49.836Z,292
2017-09-14T06:07:30.436Z,280
2017-09-14T06:08:10.946Z,280
2017-09-14T06:08:51.485Z,292
2017-09-14T06:09:31.987Z,312
2017-09-14T06:10:12.589Z,324
2017-09-14T06:10:53.152Z,324
2017-09-14T06:11:33.716Z,328
2017-09-14T06:12:14.272Z,320
2017-09-14T06:12:54.844Z,312
2017-09-14T06:13:35.418Z,312
2017-09-14T06:14:15.940Z,320
2017-09-14T06:14:56.530Z,332
2017-09-14T06:15:37.065Z,360
2017-09-14T06:16:17.633Z,384
2017-09-14T06:16:58.202Z,380
2017-09-14T06:17:38.750Z,372
2017-09-14T06:18:19.334Z,364
2017-09-14T06:18:59.884Z,352
2017-09-14T06:19:40.454Z,332
2017-09-14T06:20:21.027Z,312
2017-09-14T06:21:01.560Z,312
2017-09-14T06:21:42.122Z,320
2017-09-14T06:22:22.692Z,328
2017-09-14T06:23:03.230Z,328
2017-09-14T06:23:43.784Z,336
2017-09-14T06:24:24.335Z,372
2017-09-14T06:25:04.889Z,436
2017-09-14T06:25:45.456Z,508
2017-09-14T06:26:26.001Z,544
2017-09-14T06:27:06.616Z,540
2017-09-14T06:27:47.159Z,512
2017-09-14T06:28:27.690Z,464
2017-09-14T06:29:08.249Z,400
2017-09-14T06:31:36.859Z,256
2017-09-14T06:32:17.427Z,248
2017-09-14T06:32:58.007Z,252
2017-09-14T06:33:38.555Z,280
2017-09-14T06:34:19.106Z,296
2017-09-14T06:34:59.652Z,300
2017-09-14T06:35:40.203Z,292
2017-09-14T06:36:20.767Z,304
2017-09-14T06:37:01.341Z,308
2017-09-14T06:37:41.906Z,284
2017-09-14T06:38:22.439Z,276
2017-09-14T06:39:02.980Z,276
2017-09-14T06:39:43.508Z,288
2017-09-14T06:40:24.135Z,312
2017-09-14T06:41:04.758Z,348
2017-09-14T06:41:45.271Z,404
2017-09-14T06:42:25.810Z,480
2017-09-14T06:43:06.347Z,552
2017-09-14T06:43:46.895Z,572
2017-09-14T06:44:27.443Z,604
2017-09-14T06:45:08.010Z,636
2017-09-14T06:45:48.583Z,648
2017-09-14T06:46:29.128Z,636
2017-09-14T06:47:09.700Z,616
2017-09-14T06:47:50.289Z,584
2017-09-14T06:48:30.807Z,560
2017-09-14T06:49:11.356Z,560
2017-09-14T06:49:51.879Z,560
2017-09-14T06:50:32.490Z,536
2017-09-14T06:51:12.985Z,528
2017-09-14T06:51:53.554Z,520
2017-09-14T06:52:34.040Z,504
2017-09-14T06:53:14.579Z,492
2017-09-14T06:53:55.143Z,476
2017-09-14T06:54:35.730Z,452
2017-09-14T06:55:16.217Z,452
2017-09-14T06:55:56.773Z,440
2017-09-14T06:56:37.314Z,428
2017-09-14T06:57:17.938Z,428
2017-09-14T06:57:58.516Z,432
2017-09-14T06:58:39.012Z,440
2017-09-14T06:59:19.580Z,456
2017-09-14T07:00:00.094Z,464
2017-09-14T07:00:40.612Z,476
2017-09-14T07:01:21.146Z,476
2017-09-14T07:02:01.688Z,444
2017-09-14T07:02:42.303Z,404
2017-09-14T07:03:22.803Z,388
2017-09-14T07:04:03.344Z,400
2017-09-14T07:04:43.898Z,432
2017-09-14T07:05:24.478Z,456
2017-09-14T07:06:05.006Z,468
2017-09-14T07:06:45.553Z,472
2017-09-14T07:07:26.090Z,464
2017-09-14T07:08:06.643Z,448
2017-09-14T07:08:47.143Z,444
2017-09-14T07:09:27.661Z,460
2017-09-14T07:10:08.237Z,468
2017-09-14T07:10:48.747Z,460
2017-09-14T07:11:29.265Z,456
2017-09-14T07:12:09.797Z,468
2017-09-14T07:12:50.346Z,496
2017-09-14T07:13:30.897Z,524
2017-09-14T07:14:11.388Z,540
2017-09-14T07:14:51.913Z,548
2017-09-14T07:15:32.465Z,568
2017-09-14T07:16:12.962Z,612
2017-09-14T07:16:53.490Z,676
2017-09-14T07:17:34.040Z,740
2017-09-14T07:18:14.594Z,788
2017-09-14T07:18:55.159Z,824
2017-09-14T07:19:35.691Z,844
2017-09-14T07:20:16.277Z,844
2017-09-14T07:20:56.812Z,852
2017-09-14T07:21:37.373Z,828
2017-09-14T07:22:17.933Z,772
2017-09-14T07:22:58.581Z,768
2017-09-14T07:23:39.003Z,812
2017-09-14T07:24:19.575Z,884
2017-09-14T07:25:00.068Z,940
2017-09-14T07:25:40.625Z,960
2017-09-14T07:26:21.196Z,964
2017-09-14T07:27:01.760Z,940
2017-09-14T07:27:42.324Z,904
2017-09-14T07:28:22.915Z,872
2017-09-14T07:29:03.532Z,820
2017-09-14T07:29:43.983Z,740
2017-09-14T07:30:24.530Z,672
2017-09-14T07:31:05.079Z,664
2017-09-14T07:31:45.641Z,692
2017-09-14T07:32:26.192Z,744
2017-09-14T07:33:06.738Z,816
2017-09-14T07:33:47.325Z,908
2017-09-14T07:34:27.874Z,988
2017-09-14T07:35:08.449Z,1040
2017-09-14T07:35:48.948Z,1056
2017-09-14T07:36:29.478Z,1064
2017-09-14T07:37:10.032Z,1076
2017-09-14T07:37:50.581Z,1052
2017-09-14T07:38:31.095Z,1036
2017-09-14T07:39:11.663Z,1068
2017-09-14T07:39:52.225Z,1160
2017-09-14T07:40:32.760Z,1244
2017-09-14T07:41:13.392Z,1300
2017-09-14T07:41:53.896Z,1348
2017-09-14T07:42:34.437Z,1412
2017-09-14T07:43:14.994Z,1464
2017-09-14T07:43:55.580Z,1500
2017-09-14T07:44:36.096Z,1484
2017-09-14T07:45:16.641Z,1456
2017-09-14T07:45:57.193Z,1388
2017-09-14T07:46:37.785Z,1304
2017-09-14T07:47:18.333Z,1192
2017-09-14T07:47:58.860Z,1068
2017-09-14T07:48:39.384Z,992
2017-09-14T07:49:20.025Z,1008
2017-09-14T07:50:00.516Z,1028
2017-09-14T07:50:41.049Z,1024
2017-09-14T07:51:21.593Z,1004
2017-09-14T07:52:02.174Z,1020
2017-09-14T07:52:42.717Z,1056
2017-09-14T07:53:23.261Z,1088
2017-09-14T07:54:03.810Z,1116
2017-09-14T07:54:44.361Z,1108
2017-09-14T07:55:24.950Z,1064
2017-09-14T07:56:05.513Z,1052
2017-09-14T07:56:46.075Z,1016
2017-09-14T07:57:26.646Z,1028
2017-09-14T07:58:07.147Z,1144
2017-09-14T07:58:47.717Z,1204
2017-09-14T07:59:28.309Z,1128
2017-09-14T08:00:08.879Z,1052
2017-09-14T08:00:49.434Z,956
2017-09-14T08:01:29.999Z,1044
2017-09-14T08:02:10.526Z,1216
2017-09-14T08:02:51.077Z,1324
2017-09-14T08:03:31.641Z,1360
2017-09-14T08:04:12.196Z,1300
2017-09-14T08:04:52.765Z,1244
2017-09-14T08:05:33.318Z,1200
2017-09-14T08:06:13.854Z,1180
2017-09-14T08:06:54.392Z,1176
2017-09-14T08:07:34.906Z,1160
2017-09-14T08:08:15.419Z,1120
2017-09-14T08:08:56.021Z,1128
2017-09-14T08:09:36.603Z,1168
2017-09-14T08:10:17.167Z,1216
2017-09-14T08:10:57.720Z,1304
2017-09-14T08:11:38.256Z,1424
2017-09-14T08:12:18.800Z,1524
2017-09-14T08:12:59.383Z,1624
2017-09-14T08:13:39.966Z,1512
2017-09-14T08:14:20.520Z,1420
2017-09-14T08:15:01.121Z,1404
2017-09-14T08:15:41.652Z,1340
2017-09-14T08:16:22.219Z,1268
2017-09-14T08:17:02.786Z,1304
2017-09-14T08:17:43.357Z,1360
2017-09-14T08:18:23.888Z,1304
2017-09-14T08:19:04.436Z,1236
2017-09-14T08:19:45.019Z,1268
2017-09-14T08:20:25.520Z,1184
2017-09-14T08:21:06.067Z,1188
2017-09-14T08:21:46.618Z,1280
2017-09-14T08:22:27.176Z,1420
2017-09-14T08:23:07.737Z,1484
2017-09-14T08:23:48.292Z,1464
2017-09-14T08:24:28.834Z,1460
2017-09-14T08:25:09.392Z,1592
2017-09-14T08:25:49.968Z,1692
2017-09-14T08:26:30.535Z,1840
2017-09-14T08:27:11.097Z,2008
2017-09-14T08:27:51.664Z,1992
2017-09-14T08:28:32.226Z,1800
2017-09-14T08:29:12.767Z,1588
2017-09-14T08:29:53.326Z,1552
2017-09-14T08:30:33.907Z,1548
2017-09-14T08:31:14.450Z,1424
2017-09-14T08:31:55.006Z,1212
2017-09-14T08:32:35.554Z,1052
2017-09-14T08:33:16.152Z,968
2017-09-14T08:33:56.703Z,1032
2017-09-14T08:34:37.270Z,1168
2017-09-14T08:35:17.827Z,1348
2017-09-14T08:35:58.411Z,1428
2017-09-14T08:36:38.956Z,1420
2017-09-14T08:37:19.508Z,1396
2017-09-14T08:38:00.059Z,1448
2017-09-14T08:38:40.593Z,1524
2017-09-14T08:39:21.159Z,1548
2017-09-14T08:40:01.736Z,1564
2017-09-14T08:40:42.280Z,1672
2017-09-14T08:41:22.822Z,1760
2017-09-14T08:42:03.420Z,1788
2017-09-14T08:42:43.959Z,1848
2017-09-14T08:43:24.510Z,1992
2017-09-14T08:44:05.084Z,2132
2017-09-14T08:44:45.596Z,2168
2017-09-14T08:45:26.109Z,2152
2017-09-14T08:46:06.655Z,2164
2017-09-14T08:46:47.200Z,2228
2017-09-14T08:47:27.784Z,2404
2017-09-14T08:48:08.335Z,2628
2017-09-14T08:48:48.885Z,2824
2017-09-14T08:49:29.448Z,2956
2017-09-14T08:50:09.985Z,2896
2017-09-14T08:50:50.568Z,2828
2017-09-14T08:51:31.118Z,2932
2017-09-14T08:52:11.655Z,3036
2017-09-14T08:52:52.211Z,2916
2017-09-14T08:53:32.774Z,2680
2017-09-14T08:54:13.345Z,2556
2017-09-14T08:54:53.908Z,2524
2017-09-14T08:55:34.448Z,2352
2017-09-14T08:56:15.002Z,2124
2017-09-14T08:56:55.593Z,1904
2017-09-14T08:57:36.185Z,1752
2017-09-14T08:58:16.739Z,1620
2017-09-14T08:58:57.301Z,1480
2017-09-14T08:59:37.876Z,1392
2017-09-14T09:00:18.450Z,1340
2017-09-14T09:00:58.981Z,1356
2017-09-14T09:01:39.527Z,1424
2017-09-14T09:02:20.102Z,1464
2017-09-14T09:03:00.675Z,1464
2017-09-14T09:03:41.237Z,1432
2017-09-14T09:04:21.785Z,1440
2017-09-14T09:05:02.362Z,1488
2017-09-14T09:05:42.929Z,1560
2017-09-14T09:06:23.463Z,1632
2017-09-14T09:07:04.025Z,1772
2017-09-14T09:07:44.577Z,1900
2017-09-14T09:08:25.176Z,1952
2017-09-14T09:09:05.679Z,1924
2017-09-14T09:09:46.235Z,1824
2017-09-14T09:10:26.807Z,1744
2017-09-14T09:11:07.352Z,1760
2017-09-14T09:11:47.935Z,1768
2017-09-14T09:12:28.482Z,1704
2017-09-14T09:13:08.983Z,1652
2017-09-14T09:13:49.509Z,1736
2017-09-14T09:14:30.066Z,1836
2017-09-14T09:15:10.638Z,1836
2017-09-14T09:15:51.159Z,1816
2017-09-14T09:16:31.724Z,1768
2017-09-14T09:17:12.267Z,1728
2017-09-14T09:17:52.831Z,1724
2017-09-14T09:18:33.393Z,1720
2017-09-14T09:19:13.946Z,1696
2017-09-14T09:19:54.500Z,1664
2017-09-14T09:20:35.058Z,1620
2017-09-14T09:21:15.617Z,1572
2017-09-14T09:21:56.212Z,1504
2017-09-14T09:22:36.776Z,1440
2017-09-14T09:23:17.347Z,1376
2017-09-14T09:23:57.915Z,1308
2017-09-14T09:24:38.465Z,1248
2017-09-14T09:25:19.006Z,1172
2017-09-14T09:25:59.568Z,1136
2017-09-14T09:26:40.125Z,1104
2017-09-14T09:27:20.916Z,1092
2017-09-14T09:28:01.405Z,1072
2017-09-14T09:28:41.985Z,1100
2017-09-14T09:29:22.625Z,1168
2017-09-14T09:30:03.184Z,1260
2017-09-14T09:30:43.699Z,1372
2017-09-14T09:31:24.236Z,1436
2017-09-14T09:32:04.801Z,1416
2017-09-14T09:32:45.368Z,1392
2017-09-14T09:33:25.922Z,1424
2017-09-14T09:34:06.457Z,1500
2017-09-14T09:34:47.031Z,1544
2017-09-14T09:35:27.596Z,1504
2017-09-14T09:36:08.153Z,1516
2017-09-14T09:36:48.699Z,1576
2017-09-14T09:37:29.248Z,1620